createdAt,value
2022-08-27T00:00:52.038Z,9.68
2022-08-27T00:03:20.937Z,9.98
2022-08-27T00:05:49.500Z,9.60
2022-08-27T00:08:18.002Z,9.02
2022-08-27T00:10:46.441Z,10.05
2022-08-27T00:13:16.076Z,10.80
2022-08-27T00:15:46.005Z,12.40
2022-08-27T00:18:14.584Z,12.85
2022-08-27T00:20:44.396Z,12.07
2022-08-27T00:23:12.867Z,12.32
2022-08-27T00:25:41.343Z,12.00
2022-08-27T00:28:10.181Z,11.20
2022-08-27T00:30:40.085Z,10.93
2022-08-27T00:33:09.980Z,11.27
2022-08-27T00:35:38.644Z,10.70
2022-08-27T00:38:08.100Z,10.65
2022-08-27T00:40:37.034Z,10.07
2022-08-27T00:43:05.615Z,9.73
2022-08-27T00:45:38.670Z,11.25
2022-08-27T00:48:12.055Z,9.98
2022-08-27T00:50:44.964Z,11.40
2022-08-27T00:53:17.281Z,11.63
2022-08-27T00:55:48.712Z,10.95
2022-08-27T00:58:22.932Z,10.73
2022-08-27T01:00:51.679Z,11.25
2022-08-27T01:03:22.115Z,11.35
2022-08-27T01:05:51.849Z,10.63
2022-08-27T01:08:24.758Z,10.80
2022-08-27T01:10:55.086Z,10.20
2022-08-27T01:13:44.195Z,10.07
2022-08-27T01:16:20.223Z,10.65
2022-08-27T01:18:51.325Z,10.43
2022-08-27T01:21:29.492Z,10.48
2022-08-27T01:24:04.206Z,10.13
2022-08-27T01:26:34.238Z,9.48
2022-08-27T01:29:02.885Z,10.48
2022-08-27T01:31:32.196Z,9.98
2022-08-27T01:34:02.754Z,9.88
2022-08-27T01:36:32.240Z,9.27
2022-08-27T01:39:01.069Z,8.80
2022-08-27T01:41:30.045Z,9.60
2022-08-27T01:43:59.902Z,9.70
2022-08-27T01:46:29.952Z,9.77
2022-08-27T01:48:58.420Z,9.80
2022-08-27T01:51:27.036Z,9.90
2022-08-27T01:53:55.506Z,9.30
2022-08-27T01:56:24.488Z,9.52
2022-08-27T01:58:53.004Z,9.98
2022-08-27T02:01:22.881Z,9.07
2022-08-27T02:03:51.398Z,10.32
2022-08-27T02:06:20.038Z,10.40
2022-08-27T02:08:48.568Z,9.57
2022-08-27T02:11:17.176Z,11.00
2022-08-27T02:13:45.672Z,10.10
2022-08-27T02:16:15.052Z,9.82
2022-08-27T02:18:44.998Z,10.02
2022-08-27T02:21:15.392Z,10.93
2022-08-27T02:23:45.558Z,10.90
2022-08-27T02:26:14.145Z,10.80
2022-08-27T02:28:42.663Z,10.70
2022-08-27T02:31:11.594Z,10.90
2022-08-27T02:33:40.160Z,10.45
2022-08-27T02:36:11.148Z,10.70
2022-08-27T02:38:39.648Z,10.80
2022-08-27T02:41:08.458Z,10.50
2022-08-27T02:43:37.194Z,11.30
2022-08-27T02:46:05.883Z,11.23
2022-08-27T02:48:37.992Z,11.43
2022-08-27T02:51:07.168Z,11.20
2022-08-27T02:53:37.928Z,11.60
2022-08-27T02:56:07.610Z,11.27
2022-08-27T02:58:36.170Z,11.13
2022-08-27T03:01:05.490Z,10.93
2022-08-27T03:03:39.843Z,11.57
2022-08-27T03:06:09.914Z,11.52
2022-08-27T03:08:52.936Z,11.20
2022-08-27T03:11:23.762Z,11.48
2022-08-27T03:13:52.846Z,12.68
2022-08-27T03:16:21.440Z,11.40
2022-08-27T03:18:49.078Z,11.40
2022-08-27T03:21:19.519Z,11.68
2022-08-27T03:23:49.864Z,12.07
2022-08-27T03:26:19.708Z,12.10
2022-08-27T03:28:48.497Z,12.65
2022-08-27T03:31:21.464Z,12.85
2022-08-27T03:33:49.989Z,12.27
2022-08-27T03:36:18.477Z,11.85
2022-08-27T03:38:46.983Z,11.88
2022-08-27T03:41:18.245Z,12.13
2022-08-27T03:43:47.866Z,10.85
2022-08-27T03:46:17.438Z,12.63
2022-08-27T03:48:46.117Z,12.40
2022-08-27T03:51:16.396Z,11.93
2022-08-27T03:53:47.215Z,12.13
2022-08-27T03:56:17.077Z,11.90
2022-08-27T03:58:45.965Z,11.70
2022-08-27T04:01:14.738Z,11.00
2022-08-27T04:03:43.232Z,10.75
2022-08-27T04:06:11.789Z,12.07
2022-08-27T04:08:40.501Z,12.10
2022-08-27T04:11:09.494Z,12.20
2022-08-27T04:13:41.068Z,11.77
2022-08-27T04:16:09.669Z,12.88
2022-08-27T04:18:38.166Z,12.45
2022-08-27T04:21:11.317Z,11.98
2022-08-27T04:23:39.916Z,12.98
2022-08-27T04:26:09.460Z,11.93
2022-08-27T04:28:39.676Z,12.77
2022-08-27T04:31:16.449Z,13.52
2022-08-27T04:33:50.796Z,12.85
2022-08-27T04:36:20.715Z,13.35
2022-08-27T04:38:49.299Z,13.43
2022-08-27T04:41:21.489Z,13.88
2022-08-27T04:43:55.005Z,13.27
2022-08-27T04:46:24.756Z,13.15
2022-08-27T04:48:54.952Z,14.95
2022-08-27T04:51:23.883Z,14.20
2022-08-27T04:53:52.853Z,13.30
2022-08-27T04:56:23.375Z,13.25
2022-08-27T04:58:53.579Z,13.38
2022-08-27T05:01:24.125Z,12.65
2022-08-27T05:03:52.982Z,13.95
2022-08-27T05:06:22.245Z,12.48
2022-08-27T05:08:52.642Z,13.57
2022-08-27T05:11:21.537Z,12.55
2022-08-27T05:13:50.504Z,12.27
2022-08-27T05:16:22.833Z,12.90
2022-08-27T05:18:53.325Z,13.73
2022-08-27T05:21:24.272Z,12.93
2022-08-27T05:23:54.831Z,13.32
2022-08-27T05:26:24.009Z,11.50
2022-08-27T05:28:52.829Z,12.30
2022-08-27T05:31:23.698Z,12.88
2022-08-27T05:33:52.264Z,12.15
2022-08-27T05:36:24.217Z,12.48
2022-08-27T05:38:52.749Z,12.27
2022-08-27T05:41:25.189Z,12.20
2022-08-27T05:44:18.438Z,12.93
2022-08-27T05:46:54.195Z,12.65
2022-08-27T05:49:22.811Z,12.43
2022-08-27T05:51:51.578Z,11.90
2022-08-27T05:54:20.181Z,12.40
2022-08-27T05:56:50.227Z,12.55
2022-08-27T05:59:36.695Z,11.88
2022-08-27T06:02:07.457Z,11.55
2022-08-27T06:04:36.098Z,12.40
2022-08-27T06:07:04.926Z,11.55
2022-08-27T06:09:33.493Z,11.68
2022-08-27T06:12:02.769Z,11.23
2022-08-27T06:14:31.352Z,10.95
2022-08-27T06:17:01.900Z,12.00
2022-08-27T06:19:32.157Z,13.70
2022-08-27T06:22:09.869Z,11.75
2022-08-27T06:24:39.628Z,10.90
2022-08-27T06:27:09.702Z,11.85
2022-08-27T06:29:38.246Z,11.82
2022-08-27T06:32:06.946Z,13.10
2022-08-27T06:34:37.165Z,12.68
2022-08-27T06:37:05.968Z,12.07
2022-08-27T06:39:36.309Z,12.27
2022-08-27T06:42:07.062Z,12.75
2022-08-27T06:44:35.859Z,13.15
2022-08-27T06:47:04.885Z,12.80
2022-08-27T06:49:34.688Z,13.27
2022-08-27T06:52:05.069Z,12.88
2022-08-27T06:54:35.215Z,12.48
2022-08-27T06:57:03.719Z,13.15
2022-08-27T06:59:34.447Z,13.05
2022-08-27T07:02:02.928Z,13.45
2022-08-27T07:04:32.575Z,13.80
2022-08-27T07:07:02.508Z,12.88
2022-08-27T07:09:33.136Z,14.60
2022-08-27T07:12:01.988Z,14.90
2022-08-27T07:14:35.591Z,16.05
2022-08-27T07:17:06.987Z,15.18
2022-08-27T07:19:40.796Z,15.13
2022-08-27T07:22:10.574Z,15.65
2022-08-27T07:24:40.474Z,16.17
2022-08-27T07:27:09.297Z,16.25
2022-08-27T07:29:38.011Z,15.70
2022-08-27T07:32:07.351Z,15.57
2022-08-27T07:34:35.894Z,15.63
2022-08-27T07:37:04.426Z,14.43
2022-08-27T07:39:32.952Z,17.45
2022-08-27T07:42:20.369Z,16.55
2022-08-27T07:44:50.009Z,15.85
2022-08-27T07:47:18.719Z,14.70
2022-08-27T07:49:48.583Z,15.02
2022-08-27T07:52:17.643Z,14.70
2022-08-27T07:54:46.294Z,15.40
2022-08-27T07:57:16.150Z,14.80
2022-08-27T07:59:44.932Z,13.77
2022-08-27T08:02:13.972Z,14.60
2022-08-27T08:04:42.609Z,14.82
2022-08-27T08:07:11.234Z,16.55
2022-08-27T08:09:39.817Z,14.98
2022-08-27T08:12:08.671Z,14.38
2022-08-27T08:14:38.816Z,15.32
2022-08-27T08:17:10.496Z,14.80
2022-08-27T08:19:40.492Z,14.45
2022-08-27T08:22:09.904Z,14.40
2022-08-27T08:24:38.396Z,13.45
2022-08-27T08:27:08.058Z,14.07
2022-08-27T08:29:39.212Z,14.90
2022-08-27T08:32:08.822Z,13.95
2022-08-27T08:34:37.769Z,14.82
2022-08-27T08:37:07.728Z,14.68
2022-08-27T08:39:38.468Z,14.98
2022-08-27T08:42:11.847Z,14.38
2022-08-27T08:44:48.643Z,13.32
2022-08-27T08:47:21.067Z,14.18
2022-08-27T08:49:56.130Z,13.50
2022-08-27T08:52:39.281Z,13.48
2022-08-27T08:55:16.188Z,12.65
2022-08-27T08:57:50.792Z,11.82
2022-08-27T09:00:21.164Z,12.80
2022-08-27T09:02:54.778Z,13.60
2022-08-27T09:05:27.677Z,12.95
2022-08-27T09:08:31.051Z,13.35
2022-08-27T09:11:00.445Z,14.35
2022-08-27T09:13:32.959Z,12.88
2022-08-27T09:16:05.299Z,11.25
2022-08-27T09:18:37.953Z,11.10
2022-08-27T09:21:17.506Z,10.77
2022-08-27T09:24:05.704Z,9.75
2022-08-27T09:26:38.860Z,10.75
2022-08-27T09:29:20.454Z,9.80
2022-08-27T09:31:59.197Z,8.88
2022-08-27T09:34:41.269Z,8.05
2022-08-27T09:37:15.603Z,8.15
2022-08-27T09:39:51.665Z,6.68
2022-08-27T09:42:31.224Z,5.22
2022-08-27T09:45:00.183Z,7.00
2022-08-27T09:47:30.189Z,5.18
2022-08-27T09:50:06.746Z,5.43
2022-08-27T09:52:39.135Z,5.47
2022-08-27T09:55:08.534Z,5.88
2022-08-27T09:57:41.611Z,5.22
2022-08-27T10:00:17.351Z,6.13
2022-08-27T10:02:55.564Z,6.10
2022-08-27T10:05:29.249Z,6.00
2022-08-27T10:08:03.290Z,6.68
2022-08-27T10:10:42.383Z,6.78
2022-08-27T10:13:16.563Z,7.03
2022-08-27T10:16:01.993Z,8.15
2022-08-27T10:18:41.718Z,7.75
2022-08-27T10:21:17.952Z,7.75
2022-08-27T10:23:59.352Z,7.18
2022-08-27T10:26:33.988Z,7.38
2022-08-27T10:29:10.744Z,6.93
2022-08-27T10:31:46.541Z,6.85
2022-08-27T10:34:29.626Z,6.57
2022-08-27T10:37:09.438Z,7.93
2022-08-27T10:40:00.171Z,6.88
2022-08-27T10:42:33.476Z,5.97
2022-08-27T10:45:30.604Z,5.50
2022-08-27T10:48:07.517Z,6.38
2022-08-27T10:50:45.357Z,5.38
2022-08-27T10:53:28.307Z,4.90
2022-08-27T10:56:08.298Z,5.82
2022-08-27T10:58:46.657Z,5.78
2022-08-27T11:01:22.653Z,5.47
2022-08-27T11:03:56.020Z,4.15
2022-08-27T11:06:30.239Z,4.97
2022-08-27T11:09:07.648Z,5.47
2022-08-27T11:12:12.839Z,4.85
2022-08-27T11:14:31.862Z,5.03
2022-08-27T11:17:08.050Z,4.70
2022-08-27T11:19:48.432Z,6.50
2022-08-27T11:22:26.585Z,5.30
2022-08-27T11:25:00.600Z,5.25
2022-08-27T11:27:33.233Z,5.20
2022-08-27T11:30:09.258Z,4.63
2022-08-27T11:32:50.910Z,5.18
2022-08-27T11:35:28.746Z,5.30
2022-08-27T11:38:34.394Z,5.00
2022-08-27T11:41:28.417Z,5.43
2022-08-27T11:43:57.538Z,5.75
2022-08-27T11:46:28.580Z,4.70
2022-08-27T11:48:59.616Z,4.75
2022-08-27T11:51:34.255Z,4.97
2022-08-27T11:54:07.755Z,4.80
2022-08-27T11:56:42.948Z,5.82
2022-08-27T11:59:21.414Z,5.65
2022-08-27T12:01:51.697Z,5.07
2022-08-27T12:04:36.609Z,4.15
2022-08-27T12:07:07.560Z,3.55
2022-08-27T12:10:02.650Z,3.70
2022-08-27T12:12:43.225Z,3.30
2022-08-27T12:15:18.832Z,3.00
2022-08-27T12:17:55.964Z,3.50
2022-08-27T12:20:30.983Z,3.95
2022-08-27T12:23:31.340Z,4.57
2022-08-27T12:26:15.953Z,4.28
2022-08-27T12:28:45.264Z,4.05
2022-08-27T12:31:21.069Z,4.03
2022-08-27T12:33:52.619Z,4.57
2022-08-27T12:36:27.531Z,3.92
2022-08-27T12:38:59.305Z,4.25
2022-08-27T12:41:32.193Z,3.38
2022-08-27T12:44:14.791Z,4.25
2022-08-27T12:46:48.228Z,4.00
2022-08-27T12:49:36.845Z,4.03
2022-08-27T12:52:27.738Z,3.72
2022-08-27T12:55:11.161Z,5.45
2022-08-27T12:57:47.078Z,4.13
2022-08-27T13:00:19.647Z,3.55
2022-08-27T13:03:14.364Z,3.90
2022-08-27T13:05:44.622Z,3.53
2022-08-27T13:08:21.764Z,4.40
2022-08-27T13:10:51.180Z,3.80
2022-08-27T13:13:23.424Z,3.65
2022-08-27T13:15:54.892Z,3.58
2022-08-27T13:18:24.976Z,3.90
2022-08-27T13:21:04.235Z,3.80
2022-08-27T13:23:33.035Z,3.35
2022-08-27T13:26:06.578Z,3.65
2022-08-27T13:28:39.943Z,3.90
2022-08-27T13:31:10.453Z,3.22
2022-08-27T13:33:41.503Z,3.33
2022-08-27T13:36:11.580Z,3.60
2022-08-27T13:38:46.636Z,3.83
2022-08-27T13:41:25.890Z,2.90
2022-08-27T13:43:59.340Z,3.17
2022-08-27T13:46:31.093Z,3.40
2022-08-27T13:49:01.263Z,3.42
2022-08-27T13:51:32.835Z,2.65
2022-08-27T13:54:15.915Z,3.20
2022-08-27T13:57:03.740Z,2.85
2022-08-27T13:59:33.861Z,2.67
2022-08-27T14:02:05.381Z,3.20
2022-08-27T14:04:39.780Z,2.70
2022-08-27T14:07:13.001Z,3.00
2022-08-27T14:09:54.009Z,3.00
2022-08-27T14:12:32.936Z,2.90
2022-08-27T14:15:19.353Z,2.63
2022-08-27T14:17:48.347Z,3.15
2022-08-27T14:20:19.635Z,2.75
2022-08-27T14:22:48.882Z,3.15
2022-08-27T14:25:19.129Z,3.60
2022-08-27T14:27:54.523Z,3.03
2022-08-27T14:30:29.892Z,3.15
2022-08-27T14:33:00.511Z,2.72
2022-08-27T14:35:30.791Z,2.80
2022-08-27T14:38:02.494Z,2.50
2022-08-27T14:40:31.479Z,2.33
2022-08-27T14:43:01.672Z,2.00
2022-08-27T14:45:31.787Z,2.50
2022-08-27T14:48:18.257Z,2.00
2022-08-27T14:50:48.190Z,1.98
2022-08-27T14:53:17.584Z,2.00
2022-08-27T14:55:51.500Z,2.05
2022-08-27T14:58:21.768Z,2.10
2022-08-27T15:00:52.263Z,1.92
2022-08-27T15:03:21.133Z,2.13
2022-08-27T15:05:49.652Z,3.28
2022-08-27T15:08:18.197Z,2.80
2022-08-27T15:10:47.851Z,2.78
2022-08-27T15:13:16.515Z,3.05
2022-08-27T15:15:45.196Z,3.60
2022-08-27T15:18:15.176Z,2.78
2022-08-27T15:20:44.292Z,2.40
2022-08-27T15:23:14.088Z,2.90
2022-08-27T15:25:43.686Z,2.40
2022-08-27T15:28:12.281Z,2.72
2022-08-27T15:30:41.220Z,2.53
2022-08-27T15:33:09.894Z,2.58
2022-08-27T15:35:39.974Z,2.78
2022-08-27T15:38:08.602Z,2.80
2022-08-27T15:40:37.500Z,2.88
2022-08-27T15:43:08.318Z,3.05
2022-08-27T15:45:37.146Z,2.92
2022-08-27T15:48:06.436Z,2.95
2022-08-27T15:50:36.015Z,2.83
2022-08-27T15:53:09.146Z,3.58
2022-08-27T15:55:40.227Z,2.95
2022-08-27T15:58:10.096Z,3.00
2022-08-27T16:00:39.534Z,2.67
2022-08-27T16:03:11.589Z,2.50
2022-08-27T16:05:41.957Z,5.28
2022-08-27T16:08:13.150Z,3.10
2022-08-27T16:10:42.025Z,3.30
2022-08-27T16:13:10.571Z,2.67
2022-08-27T16:15:40.869Z,2.83
2022-08-27T16:18:10.944Z,3.00
2022-08-27T16:20:39.828Z,3.10
2022-08-27T16:23:08.497Z,3.63
2022-08-27T16:25:38.338Z,3.13
2022-08-27T16:28:07.027Z,2.97
2022-08-27T16:30:35.631Z,6.55
2022-08-27T16:33:04.288Z,3.33
2022-08-27T16:35:36.093Z,3.67
2022-08-27T16:38:05.452Z,3.85
2022-08-27T16:40:37.574Z,4.00
2022-08-27T16:43:07.531Z,3.58
2022-08-27T16:45:36.029Z,3.97
2022-08-27T16:48:22.511Z,3.90
2022-08-27T16:50:51.104Z,4.28
2022-08-27T16:53:22.231Z,3.22
2022-08-27T16:55:51.959Z,4.65
2022-08-27T16:58:24.156Z,3.58
2022-08-27T17:00:56.584Z,3.60
2022-08-27T17:03:26.287Z,3.80
2022-08-27T17:05:55.710Z,3.53
2022-08-27T17:08:27.417Z,3.60
2022-08-27T17:10:57.789Z,3.88
2022-08-27T17:13:32.911Z,3.38
2022-08-27T17:16:02.160Z,4.43
2022-08-27T17:18:31.757Z,5.95
2022-08-27T17:21:01.104Z,5.97
2022-08-27T17:23:33.672Z,5.10
2022-08-27T17:26:02.696Z,4.68
2022-08-27T17:28:32.551Z,5.15
2022-08-27T17:31:02.267Z,6.43
2022-08-27T17:33:35.598Z,9.10
2022-08-27T17:36:06.091Z,6.30
2022-08-27T17:38:37.641Z,6.10
2022-08-27T17:41:17.874Z,7.25
2022-08-27T17:43:47.807Z,5.30
2022-08-27T17:46:16.553Z,5.28
2022-08-27T17:48:45.324Z,5.85
2022-08-27T17:51:14.400Z,5.35
2022-08-27T17:53:48.192Z,5.50
2022-08-27T17:56:18.175Z,5.63
2022-08-27T17:58:48.327Z,5.35
2022-08-27T18:01:22.190Z,5.15
2022-08-27T18:03:50.982Z,5.47
2022-08-27T18:06:19.531Z,4.93
2022-08-27T18:08:48.040Z,4.90
2022-08-27T18:11:16.662Z,4.70
2022-08-27T18:13:48.647Z,5.75
2022-08-27T18:16:17.190Z,5.20
2022-08-27T18:18:45.682Z,5.03
2022-08-27T18:21:14.280Z,5.25
2022-08-27T18:23:53.936Z,7.05
2022-08-27T18:26:24.317Z,6.50
2022-08-27T18:28:54.346Z,7.40
2022-08-27T18:31:32.315Z,7.50
2022-08-27T18:34:02.159Z,7.72
2022-08-27T18:36:31.539Z,7.53
2022-08-27T18:39:00.117Z,8.27
2022-08-27T18:41:30.984Z,8.70
2022-08-27T18:44:01.085Z,7.45
2022-08-27T18:46:29.747Z,7.72
2022-08-27T18:48:58.300Z,8.60
2022-08-27T18:51:26.871Z,7.63
2022-08-27T18:54:05.769Z,6.90
2022-08-27T18:56:34.311Z,7.78
2022-08-27T18:59:04.589Z,7.00
2022-08-27T19:01:33.153Z,6.93
2022-08-27T19:04:01.987Z,6.68
2022-08-27T19:06:30.647Z,6.10
2022-08-27T19:08:59.158Z,6.10
2022-08-27T19:11:29.259Z,5.70
2022-08-27T19:13:57.728Z,6.18
2022-08-27T19:16:40.690Z,7.03
2022-08-27T19:19:09.605Z,6.53
2022-08-27T19:21:38.360Z,5.45
2022-08-27T19:24:07.775Z,5.95
2022-08-27T19:26:36.911Z,6.07
2022-08-27T19:29:06.588Z,7.05
2022-08-27T19:31:37.266Z,9.40
2022-08-27T19:34:06.753Z,9.55
2022-08-27T19:36:38.822Z,9.55
2022-08-27T19:39:09.677Z,9.23
2022-08-27T19:41:38.361Z,9.35
2022-08-27T19:44:06.863Z,10.68
2022-08-27T19:46:38.001Z,10.18
2022-08-27T19:49:06.492Z,9.63
2022-08-27T19:51:34.992Z,10.32
2022-08-27T19:54:03.503Z,11.13
2022-08-27T19:56:32.779Z,10.73
2022-08-27T19:59:10.879Z,10.70
2022-08-27T20:01:46.498Z,8.75
2022-08-27T20:04:15.026Z,8.68
2022-08-27T20:06:44.034Z,9.32
2022-08-27T20:09:16.077Z,8.60
2022-08-27T20:11:45.988Z,7.63
2022-08-27T20:14:14.688Z,7.97
2022-08-27T20:16:43.336Z,6.10
2022-08-27T20:19:13.997Z,6.07
2022-08-27T20:21:42.451Z,7.90
2022-08-27T20:24:11.610Z,12.30
2022-08-27T20:26:40.200Z,8.13
2022-08-27T20:29:08.813Z,7.68
2022-08-27T20:31:37.385Z,6.93
2022-08-27T20:34:07.560Z,7.38
2022-08-27T20:36:37.735Z,7.45
2022-08-27T20:39:07.654Z,7.60
2022-08-27T20:41:36.183Z,8.07
2022-08-27T20:44:05.028Z,7.07
2022-08-27T20:46:34.572Z,7.70
2022-08-27T20:49:03.367Z,8.43
2022-08-27T20:51:32.056Z,7.88
2022-08-27T20:54:22.009Z,8.05
2022-08-27T20:56:52.409Z,6.97
2022-08-27T20:59:39.033Z,7.00
2022-08-27T21:02:09.354Z,8.68
2022-08-27T21:04:39.829Z,10.40
2022-08-27T21:07:08.313Z,7.93
2022-08-27T21:09:55.646Z,8.57
2022-08-27T21:12:25.585Z,9.18
2022-08-27T21:14:56.019Z,7.68
2022-08-27T21:17:26.399Z,8.98
2022-08-27T21:19:55.051Z,11.05
2022-08-27T21:22:24.801Z,11.90
2022-08-27T21:24:54.833Z,9.40
2022-08-27T21:27:23.707Z,8.82
2022-08-27T21:29:52.213Z,8.77
2022-08-27T21:32:20.697Z,9.68
2022-08-27T21:34:50.075Z,9.40
2022-08-27T21:37:19.142Z,9.85
2022-08-27T21:39:47.901Z,9.65
2022-08-27T21:42:17.753Z,9.02
2022-08-27T21:44:46.227Z,10.90
2022-08-27T21:47:14.941Z,10.20
2022-08-27T21:49:43.394Z,9.95
2022-08-27T21:52:11.826Z,10.57
2022-08-27T21:54:42.244Z,10.98
2022-08-27T21:57:14.371Z,10.75
2022-08-27T21:59:47.105Z,11.23
2022-08-27T22:02:39.333Z,12.63
2022-08-27T22:05:05.637Z,12.63
2022-08-27T22:07:34.198Z,12.18
2022-08-27T22:10:02.697Z,12.75
2022-08-27T22:12:31.745Z,10.88
2022-08-27T22:15:01.957Z,11.85
2022-08-27T22:17:32.099Z,11.50
2022-08-27T22:20:00.574Z,11.80
2022-08-27T22:22:30.793Z,12.95
2022-08-27T22:24:59.462Z,11.93
2022-08-27T22:27:28.016Z,12.50
2022-08-27T22:29:56.572Z,12.77
2022-08-27T22:32:26.464Z,12.25
2022-08-27T22:34:54.916Z,12.32
2022-08-27T22:37:23.336Z,14.45
2022-08-27T22:39:52.222Z,12.60
2022-08-27T22:42:21.123Z,13.10
2022-08-27T22:44:49.579Z,12.82
2022-08-27T22:47:18.053Z,12.98
2022-08-27T22:49:47.855Z,13.32
2022-08-27T22:52:21.447Z,13.45
2022-08-27T22:54:56.658Z,13.23
2022-08-27T22:57:25.191Z,13.38
2022-08-27T22:59:53.659Z,13.98
2022-08-27T23:02:22.221Z,13.10
2022-08-27T23:04:55.946Z,13.45
2022-08-27T23:07:24.895Z,12.90
2022-08-27T23:09:53.354Z,14.15
2022-08-27T23:12:22.150Z,13.35
2022-08-27T23:14:50.629Z,13.15
2022-08-27T23:17:19.262Z,13.40
2022-08-27T23:19:48.104Z,13.43
2022-08-27T23:22:17.965Z,13.13
2022-08-27T23:25:03.925Z,13.05
2022-08-27T23:27:32.519Z,14.02
2022-08-27T23:30:02.968Z,14.75
2022-08-27T23:32:32.572Z,14.77
2022-08-27T23:35:01.161Z,13.95
2022-08-27T23:37:33.138Z,14.32
2022-08-27T23:40:01.968Z,14.43
2022-08-27T23:42:31.670Z,15.13
2022-08-27T23:45:00.210Z,17.45
2022-08-27T23:47:28.722Z,15.77
2022-08-27T23:49:57.175Z,15.15
2022-08-27T23:52:25.718Z,14.80
2022-08-27T23:54:55.774Z,15.52
2022-08-27T23:57:25.260Z,16.40
2022-08-27T23:59:53.752Z,17.05
